BUC weather

Burketown Airport
Queensland, Australia

Public forecast

Using degrees Celsius for public forecast. Weather courtesy of forecast.io.

METAR (pilot weather report)

Closest report is Normanton Airport, 87.9 nm (162.8 km) E. Retrieved 2019/04/22 22:00 UTC (3 minutes ago):

YNTN 222200Z AUTO 12006KT 9999 // NCD 26/17 Q1013

TAF (pilot weather forecast)

Closest forecast is Tennant Creek Airport, 324.7 nm (601.3 km) WSW. Retrieved 2019/04/22 20:03 UTC (2 hours ago):

TAF TAF YTNK 221807Z 2220/2308 14013KT CAVOK FM222300 13017G27KT CAVOK FM230200 13010KT CAVOK